createdAt,value
2022-08-27T00:00:56.372Z,100940.22
2022-08-27T00:03:26.717Z,100942.59
2022-08-27T00:05:57.235Z,100945.53
2022-08-27T00:08:27.724Z,100952.16
2022-08-27T00:10:57.979Z,100953.50
2022-08-27T00:13:28.487Z,100956.91
2022-08-27T00:15:58.939Z,100955.69
2022-08-27T00:18:29.258Z,100960.19
2022-08-27T00:20:59.674Z,100964.34
2022-08-27T00:23:30.554Z,100972.06
2022-08-27T00:26:02.283Z,100968.44
2022-08-27T00:28:33.522Z,100972.44
2022-08-27T00:31:04.192Z,100980.25
2022-08-27T00:33:34.510Z,100981.81
2022-08-27T00:36:05.678Z,100988.50
2022-08-27T00:38:37.278Z,100994.22
2022-08-27T00:41:11.064Z,100987.47
2022-08-27T00:44:03.303Z,100996.38
2022-08-27T00:46:53.352Z,101003.22
2022-08-27T00:49:43.046Z,101003.91
2022-08-27T00:52:37.941Z,101006.06
2022-08-27T00:55:17.542Z,101011.69
2022-08-27T00:57:55.455Z,101014.22
2022-08-27T01:00:26.160Z,101015.31
2022-08-27T01:02:56.552Z,101019.75
2022-08-27T01:05:29.364Z,101027.03
2022-08-27T01:08:06.363Z,101031.47
2022-08-27T01:10:37.329Z,101033.28
2022-08-27T01:13:17.506Z,101033.00
2022-08-27T01:15:48.246Z,101036.25
2022-08-27T01:18:19.898Z,101034.03
2022-08-27T01:21:06.709Z,101031.06
2022-08-27T01:23:53.138Z,101035.94
2022-08-27T01:26:25.644Z,101034.72
2022-08-27T01:28:56.133Z,101034.34
2022-08-27T01:31:26.642Z,101032.31
2022-08-27T01:34:04.535Z,101032.19
2022-08-27T01:36:36.062Z,101032.38
2022-08-27T01:39:07.041Z,101033.06
2022-08-27T01:41:37.421Z,101032.34
2022-08-27T01:44:07.882Z,101032.56
2022-08-27T01:46:38.973Z,101031.97
2022-08-27T01:49:09.283Z,101028.03
2022-08-27T01:51:39.985Z,101025.16
2022-08-27T01:54:10.413Z,101025.94
2022-08-27T01:56:41.103Z,101023.69
2022-08-27T01:59:11.505Z,101017.31
2022-08-27T02:01:42.136Z,101010.38
2022-08-27T02:04:12.634Z,101007.53
2022-08-27T02:06:43.081Z,101016.72
2022-08-27T02:09:13.377Z,101012.25
2022-08-27T02:11:45.321Z,101012.13
2022-08-27T02:14:15.983Z,101012.53
2022-08-27T02:16:52.798Z,101018.50
2022-08-27T02:19:24.102Z,101013.59
2022-08-27T02:21:54.223Z,101021.25
2022-08-27T02:24:24.984Z,101028.78
2022-08-27T02:26:56.051Z,101034.28
2022-08-27T02:29:27.252Z,101024.31
2022-08-27T02:31:57.733Z,101026.16
2022-08-27T02:34:28.490Z,101031.34
2022-08-27T02:36:59.838Z,101025.22
2022-08-27T02:39:31.066Z,101028.31
2022-08-27T11:05:25.713Z,100588.19
2022-08-27T11:08:28.831Z,100601.81
2022-08-27T11:11:35.123Z,100602.03
2022-08-27T11:19:55.570Z,100607.53
2022-08-27T11:22:39.930Z,100611.59
2022-08-27T11:25:25.120Z,100620.22
2022-08-27T11:27:58.631Z,100629.78
2022-08-27T11:34:16.680Z,100629.94
2022-08-27T11:36:59.148Z,100633.19
2022-08-27T11:39:51.720Z,100634.16
2022-08-27T11:42:38.424Z,100642.47
2022-08-27T11:48:05.563Z,100646.66
2022-08-27T11:50:36.049Z,100656.75
2022-08-27T11:53:09.878Z,100649.59
2022-08-27T11:55:42.182Z,100659.03
2022-08-27T11:58:26.362Z,100661.94
2022-08-27T12:01:00.921Z,100660.81
2022-08-27T12:03:36.219Z,100659.34
2022-08-27T12:06:28.559Z,100673.47
2022-08-27T12:09:16.214Z,100671.69
2022-08-27T12:12:19.463Z,100675.25
2022-08-27T12:15:26.605Z,100680.47
2022-08-27T12:21:16.284Z,100673.13
2022-08-27T12:24:12.662Z,100685.16
2022-08-27T12:26:45.601Z,100687.44
2022-08-27T12:29:45.976Z,100689.25
2022-08-27T16:00:37.077Z,100987.34
2022-08-27T16:05:59.883Z,100985.66
2022-08-27T16:08:36.790Z,100975.81
2022-08-27T16:13:57.982Z,100976.66
2022-08-27T16:16:34.522Z,100990.97
2022-08-27T16:19:07.516Z,100989.72
2022-08-27T16:32:58.183Z,100992.25
2022-08-27T16:35:35.281Z,100995.19
2022-08-27T16:38:09.046Z,100985.88
2022-08-27T16:40:44.046Z,100986.38
2022-08-27T16:46:10.227Z,100989.81
2022-08-27T16:49:01.604Z,100989.59
2022-08-27T16:54:19.337Z,100989.22
2022-08-27T16:56:49.209Z,100985.97
2022-08-27T16:59:19.238Z,100995.19
2022-08-27T17:07:18.344Z,100996.00
2022-08-27T17:09:56.189Z,100992.72
2022-08-27T17:12:30.675Z,100991.44
2022-08-27T17:15:04.621Z,100986.22
2022-08-27T17:17:34.805Z,100981.00
2022-08-27T17:20:04.889Z,100979.88
2022-08-27T17:22:37.074Z,100979.38
2022-08-27T17:25:08.405Z,100975.00
2022-08-27T17:27:40.222Z,100975.00
2022-08-27T17:30:11.507Z,100968.63
2022-08-27T17:32:47.379Z,100966.41
2022-08-27T17:35:18.696Z,100965.56
2022-08-27T17:37:50.537Z,100965.56
2022-08-27T17:40:20.752Z,100962.28
2022-08-27T17:42:51.298Z,100953.19
2022-08-27T17:45:21.411Z,100955.47
2022-08-27T17:47:51.526Z,100942.78
2022-08-27T17:50:21.542Z,100943.91
2022-08-27T17:52:52.004Z,100945.53
2022-08-27T17:55:22.330Z,100935.97
2022-08-27T17:57:52.591Z,100932.88
2022-08-27T18:00:23.757Z,100932.56
2022-08-27T18:02:57.064Z,100924.59
2022-08-27T18:05:29.947Z,100931.44
2022-08-27T18:08:00.246Z,100925.09
2022-08-27T18:10:39.969Z,100921.81
2022-08-27T18:13:11.939Z,100921.81
2022-08-27T18:15:45.157Z,100915.81
2022-08-27T18:18:16.855Z,100909.16
2022-08-27T18:20:47.451Z,100913.06
2022-08-27T18:23:17.810Z,100911.41
2022-08-27T18:25:48.298Z,100903.13
2022-08-27T18:28:21.158Z,100904.28
2022-08-27T18:30:51.995Z,100907.69
2022-08-27T18:33:22.457Z,100912.06
2022-08-27T18:35:52.682Z,100909.09
2022-08-27T18:38:23.161Z,100905.56
2022-08-27T18:40:53.902Z,100897.56
2022-08-27T18:43:42.256Z,100896.78
2022-08-27T18:46:13.106Z,100892.38
2022-08-27T18:48:43.743Z,100883.59
2022-08-27T18:51:17.462Z,100891.38
2022-08-27T18:53:50.703Z,100877.56
2022-08-27T18:56:25.307Z,100867.38
2022-08-27T18:58:55.932Z,100870.44
2022-08-27T19:01:29.052Z,100864.91
2022-08-27T19:04:02.777Z,100857.28
2022-08-27T19:06:33.523Z,100851.44
2022-08-27T19:09:04.746Z,100857.59
2022-08-27T19:11:35.035Z,100859.72
2022-08-27T19:16:58.001Z,100837.16
2022-08-27T19:19:29.376Z,100839.91
2022-08-27T19:22:13.348Z,100836.66
2022-08-27T19:24:45.028Z,100832.75
2022-08-27T19:27:16.172Z,100827.75
2022-08-27T19:29:46.300Z,100823.34
2022-08-27T19:32:16.975Z,100826.75
2022-08-27T19:37:33.612Z,100814.41
2022-08-27T19:40:03.796Z,100810.84
2022-08-27T19:42:34.251Z,100807.25
2022-08-27T19:45:24.362Z,100820.25
2022-08-27T19:47:56.849Z,100813.28
2022-08-27T19:50:27.955Z,100830.94
2022-08-27T19:52:57.901Z,100823.81
2022-08-27T19:55:28.404Z,100822.19
2022-08-27T19:57:58.835Z,100822.50
2022-08-27T20:00:51.025Z,100817.78
2022-08-27T20:03:23.356Z,100821.66
2022-08-27T20:05:55.578Z,100815.03
2022-08-27T20:08:26.236Z,100823.94
2022-08-27T20:10:56.662Z,100823.94
2022-08-27T20:13:32.434Z,100823.13
2022-08-27T20:16:04.135Z,100824.59
2022-08-27T20:18:34.810Z,100824.25
2022-08-27T20:21:06.053Z,100821.50
2022-08-27T20:23:36.765Z,100825.38
2022-08-27T20:26:06.903Z,100822.97
2022-08-27T20:28:39.788Z,100824.59
2022-08-27T20:31:11.050Z,100817.44
2022-08-27T20:33:41.444Z,100821.34
2022-08-27T20:36:11.932Z,100825.72
2022-08-27T20:38:42.306Z,100830.41
2022-08-27T20:41:12.630Z,100827.66
2022-08-27T20:43:42.853Z,100829.91
2022-08-27T20:46:13.133Z,100828.28
2022-08-27T20:48:43.357Z,100823.88
2022-08-27T20:51:13.550Z,100824.38
2022-08-27T20:53:43.737Z,100817.25
2022-08-27T20:56:14.396Z,100812.56
2022-08-27T20:59:03.007Z,100802.66
2022-08-27T21:01:33.736Z,100791.13
2022-08-27T21:04:06.569Z,100796.13
2022-08-27T21:06:36.897Z,100787.06
2022-08-27T21:09:07.372Z,100801.00
2022-08-27T21:11:37.631Z,100814.81
2022-08-27T21:14:07.971Z,100809.91
2022-08-27T21:16:38.640Z,100811.03
2022-08-27T21:19:08.803Z,100815.44
2022-08-27T21:21:38.861Z,100815.94
2022-08-27T21:24:09.024Z,100824.22
2022-08-27T21:26:39.294Z,100822.59
2022-08-27T21:29:09.803Z,100831.69
2022-08-27T21:31:40.526Z,100837.50
2022-08-27T21:34:11.535Z,100830.69
2022-08-27T21:36:42.056Z,100846.41
2022-08-27T21:39:14.504Z,100845.09
2022-08-27T21:41:44.629Z,100840.59
2022-08-27T21:44:14.559Z,100842.50
2022-08-27T21:46:44.700Z,100842.00
2022-08-27T21:49:15.358Z,100846.72
2022-08-27T21:51:46.731Z,100843.97
2022-08-27T21:54:16.548Z,100847.53
2022-08-27T21:56:47.152Z,100850.41
2022-08-27T21:59:19.738Z,100866.63
2022-08-27T22:01:55.799Z,100856.47
2022-08-27T22:04:34.570Z,100862.78
2022-08-27T22:07:05.205Z,100861.66
2022-08-27T22:09:38.021Z,100858.09
2022-08-27T22:12:09.016Z,100855.09
2022-08-27T22:14:39.934Z,100847.66
2022-08-27T22:17:10.164Z,100842.25
2022-08-27T22:19:40.386Z,100835.94
2022-08-27T22:22:12.097Z,100845.84
2022-08-27T22:24:42.448Z,100838.19
2022-08-27T22:27:12.630Z,100841.44
2022-08-27T22:29:42.626Z,100844.50
2022-08-27T22:32:12.679Z,100850.84
2022-08-27T22:34:42.881Z,100841.63
2022-08-27T22:37:13.086Z,100857.16
2022-08-27T22:39:43.435Z,100866.88
2022-08-27T22:42:13.948Z,100860.94
2022-08-27T22:44:48.933Z,100847.25
2022-08-27T22:47:18.995Z,100854.72
2022-08-27T22:49:49.024Z,100861.44
2022-08-27T22:52:28.101Z,100861.56
2022-08-27T22:54:58.868Z,100868.53
2022-08-27T22:57:29.561Z,100858.63
2022-08-27T23:00:01.210Z,100867.19
2022-08-27T23:02:31.289Z,100868.34
2022-08-27T23:05:05.861Z,100871.91
2022-08-27T23:07:36.900Z,100877.59
2022-08-27T23:10:10.650Z,100877.41
2022-08-27T23:12:44.224Z,100881.28
2022-08-27T23:15:19.060Z,100873.34
2022-08-27T23:17:49.474Z,100874.97
2022-08-27T23:20:20.520Z,100882.75
2022-08-27T23:22:52.629Z,100878.88
2022-08-27T23:25:43.534Z,100891.03
2022-08-27T23:28:15.797Z,100885.50
2022-08-27T23:30:47.417Z,100887.94
2022-08-27T23:33:19.145Z,100885.13
2022-08-27T23:35:52.898Z,100889.75
2022-08-27T23:38:24.803Z,100896.34
2022-08-27T23:40:55.612Z,100894.91
2022-08-27T23:43:26.216Z,100897.66
2022-08-27T23:45:56.478Z,100904.72
2022-08-27T23:48:26.922Z,100898.41
2022-08-27T23:50:58.189Z,100902.28
2022-08-27T23:53:28.558Z,100898.91
2022-08-27T23:56:00.665Z,100896.56
2022-08-27T23:58:30.863Z,100901.06
